WetterOnline ( https://www.wetteronline.de )

Wetter aktuell Seehausen (Altmark)

Aktuelles Wetter: Seehausen (23m)

6-stündlich | Neueste Meldungen
Ortszeit Temperatur Wetter
Mo, 17.06. 20:00 25.4° C leicht bewölkt
Mo, 17.06. 14:00 23.8° C wolkig
Mo, 17.06. 8:00 17.7° C wolkenlos
Mo, 17.06. 2:00 13.6° C fast wolkenlos
So, 16.06. 20:00 18.9° C bedeckt
So, 16.06. 14:00 21.2° C bedeckt
So, 16.06. 8:00 16.2° C wolkig
So, 16.06. 2:00 15.0° C leicht bewölkt
Ortszeit Temperatur Wetter
Mo, 17.06. 21:00 24.1° C wolkenlos
Mo, 17.06. 20:50 24.1° C wolkenlos
Mo, 17.06. 20:40 24.2° C wolkenlos
Mo, 17.06. 20:30 25.1° C wolkenlos
Mo, 17.06. 20:20 25.1° C wolkenlos
Mo, 17.06. 20:10 25.2° C fast wolkenlos
Mo, 17.06. 20:00 25.4° C leicht bewölkt
Mo, 17.06. 19:30 25.0° C leicht bewölkt
Mo, 17.06. 19:00 25.6° C fast wolkenlos
Mo, 17.06. 18:30 26.4° C wolkig
Mo, 17.06. 18:00 26.1° C wolkig
Ortszeit Relative Feuchte Sichtweite
Mo, 17.06. 20:00 41% 70 km
Mo, 17.06. 14:00 44% 70 km
Mo, 17.06. 8:00 79% 12 km
Mo, 17.06. 2:00 94% 13 km
So, 16.06. 20:00 72% 55 km
So, 16.06. 14:00 51% 70 km
So, 16.06. 8:00 77% 20 km
So, 16.06. 2:00 81% 70 km
Ortszeit Relative Feuchte Sichtweite
Mo, 17.06. 21:00 46% 70 km
Mo, 17.06. 20:50 46% -
Mo, 17.06. 20:40 48% -
Mo, 17.06. 20:30 43% 70 km
Mo, 17.06. 20:20 43% -
Mo, 17.06. 20:10 44% -
Mo, 17.06. 20:00 41% 70 km
Mo, 17.06. 19:30 40% 70 km
Mo, 17.06. 19:00 38% 70 km
Mo, 17.06. 18:30 37% 60 km
Mo, 17.06. 18:00 37% 50 km
Ortszeit Niederschlagsmenge Niederschlagsart
Mo, 17.06. 20:00 0.0 l/m2 in 12 Std. -
Mo, 17.06. 14:00 0.0 l/m2 in 6 Std. -
Mo, 17.06. 8:00 0.1 l/m2 in 12 Std. -
Mo, 17.06. 2:00 0.1 l/m2 in 6 Std. Regen
So, 16.06. 20:00 0.1 l/m2 in 12 Std. Regen
So, 16.06. 14:00 0.0 l/m2 in 6 Std. -
So, 16.06. 8:00 0.0 l/m2 in 12 Std. -
So, 16.06. 2:00 0.0 l/m2 in 6 Std. -
Ortszeit Niederschlagsmenge Niederschlagsart
Mo, 17.06. 21:00 0.0 l/m2 in 1 Std. -
Mo, 17.06. 20:50 keine Meldung -
Mo, 17.06. 20:40 keine Meldung -
Mo, 17.06. 20:30 0.0 l/m2 in 1 Std. -
Mo, 17.06. 20:20 keine Meldung -
Mo, 17.06. 20:10 keine Meldung -
Mo, 17.06. 20:00 0.0 l/m2 in 1 Std. -
Mo, 17.06. 19:30 0.0 l/m2 in 1 Std. -
Mo, 17.06. 19:00 0.0 l/m2 in 1 Std. -
Mo, 17.06. 18:30 0.0 l/m2 in 1 Std. -
Mo, 17.06. 18:00 0.0 l/m2 in 1 Std. -
Ortszeit Stärke Spitze Richtung
km/h Bft. km/h Grad Sektor
Mo, 17.06. 20:00 7 2 19 50° NO
Mo, 17.06. 14:00 7 2 14 20° N
Mo, 17.06. 8:00 4 1 11 320° NW
Mo, 17.06. 2:00 6 1 11 130° SO
So, 16.06. 20:00 7 2 22 220° SW
So, 16.06. 14:00 6 1 24 210° SW
So, 16.06. 8:00 11 2 22 320° NW
So, 16.06. 2:00 11 2 47 280° W
Ortszeit Stärke Spitze Richtung
km/h Bft. km/h Grad Sektor
Mo, 17.06. 21:00 7 2 13 80° O
Mo, 17.06. 20:50 7 2 - 80° O
Mo, 17.06. 20:40 7 2 - 70° O
Mo, 17.06. 20:30 7 2 11 70° O
Mo, 17.06. 20:20 7 2 - 70° O
Mo, 17.06. 20:10 7 2 - 60° NO
Mo, 17.06. 20:00 7 2 11 50° NO
Mo, 17.06. 19:30 7 2 11 60° NO
Mo, 17.06. 19:00 7 2 18 100° O
Mo, 17.06. 18:30 13 3 19 80° O
Mo, 17.06. 18:00 13 3 19 70° O
Ortszeit Untergrenze Bedeckung Gattung
total tief tief mittel hoch
Mo, 17.06. 20:00 2100 m 3/8 1/8 - - -
Mo, 17.06. 14:00 1500 m 6/8 6/8 - - -
Mo, 17.06. 8:00 - 0/8 0/8 - - -
Mo, 17.06. 2:00 3600 m 1/8 1/8 - - -
So, 16.06. 20:00 2400 m 8/8 8/8 - - -
So, 16.06. 14:00 3000 m 8/8 8/8 - - -
So, 16.06. 8:00 6600 m 8/8 7/8 - - -
So, 16.06. 2:00 9000 m 3/8 0/8 - - -
Ortszeit Bedeckungsgrad in Achtel und Wolkenuntergrenze
Mo, 17.06. 21:00 keine Wolken
Mo, 17.06. 20:50 keine Wolken
Mo, 17.06. 20:40 keine Wolken
Mo, 17.06. 20:30 keine Wolken
Mo, 17.06. 20:20 keine Wolken
Mo, 17.06. 20:10 1(2100m)
Mo, 17.06. 20:00 1(2100m) 3(9000m)
Mo, 17.06. 19:30 1(2700m) 3(9000m)
Mo, 17.06. 19:00 1(9000m) 3(9000m)
Mo, 17.06. 18:30 1(1800m) 6(9000m) 7(9000m)
Mo, 17.06. 18:00 4(1800m) 7(9000m)
Ortszeit Luftdruck NN (hPa) Tendenz (hPa in 3 Std.)
Mo, 17.06. 20:00 1019 - 1,1
Mo, 17.06. 14:00 1022 - 0,9
Mo, 17.06. 8:00 1023 + 0,9
Mo, 17.06. 2:00 1022 + 0,3
So, 16.06. 20:00 1021 0,0
So, 16.06. 14:00 1021 + 0,9
So, 16.06. 8:00 1019 + 1,2
So, 16.06. 2:00 1017 + 1,7
Ortszeit Luftdruck NN (hPa) Tendenz (hPa in 3 Std.)
Mo, 17.06. 21:00 1019 - 0,9
Mo, 17.06. 20:50 1019 keine Meldung
Mo, 17.06. 20:40 1019 keine Meldung
Mo, 17.06. 20:30 1019 - 0,9
Mo, 17.06. 20:20 1019 keine Meldung
Mo, 17.06. 20:10 1019 keine Meldung
Mo, 17.06. 20:00 1019 - 1,1
Mo, 17.06. 19:30 1020 - 1,1
Mo, 17.06. 19:00 1020 - 1,2
Mo, 17.06. 18:30 1020 - 1,3
Mo, 17.06. 18:00 1020 - 1,3
Ortszeit Schneehöhe (cm)
Mo, 17.06. 20:00 -
Mo, 17.06. 14:00 -
Mo, 17.06. 8:00 -
Mo, 17.06. 2:00 -
So, 16.06. 20:00 -
So, 16.06. 14:00 -
So, 16.06. 8:00 -
So, 16.06. 2:00 -
Ortszeit Schneehöhe (cm)
Mo, 17.06. 21:00 -
Mo, 17.06. 20:50 -
Mo, 17.06. 20:40 -
Mo, 17.06. 20:30 -
Mo, 17.06. 20:20 -
Mo, 17.06. 20:10 -
Mo, 17.06. 20:00 -
Mo, 17.06. 19:30 -
Mo, 17.06. 19:00 -
Mo, 17.06. 18:30 -
Mo, 17.06. 18:00 -
Link zu dieser Seite / Seite empfehlen

Das Wetter in ...